Time;durP1;ratioP1;P1;durP2;ratioP2;P2;SDS_P1;SDS_P2;PMS_P1;PMS_P2;Temp;Humidity;BMP_temperature;BMP_pressure;BME280_temperature;BME280_humidity;BME280_pressure;Samples;Min_cycle;Max_cycle;Signal;HPM_P1;HPM_P2
2021/10/23 00:02:11;;;;;;;32.65;17.05;;;;;;;11.81;100.00;98997.38;5161067;27;20047;-95
2021/10/23 00:04:37;;;;;;;27.13;16.88;;;;;;;11.96;100.00;99023.63;5159693;27;20046;-95
2021/10/23 00:07:06;;;;;;;24.13;13.90;;;;;;;11.84;100.00;99010.59;5157640;27;20523;-94
2021/10/23 00:09:32;;;;;;;20.97;13.27;;;;;;;11.75;100.00;99000.22;5157653;27;20058;-94
2021/10/23 00:11:57;;;;;;;20.90;13.32;;;;;;;11.82;100.00;99012.44;5158305;27;20046;-96
2021/10/23 00:14:23;;;;;;;22.23;13.13;;;;;;;11.87;100.00;99029.19;5158884;27;20072;-95
2021/10/23 00:16:49;;;;;;;20.02;13.18;;;;;;;11.74;100.00;99006.47;5159392;27;20043;-96
2021/10/23 00:19:15;;;;;;;20.95;12.85;;;;;;;11.88;100.00;99028.28;5158376;27;20523;-95
2021/10/23 00:21:41;;;;;;;18.98;11.85;;;;;;;11.69;100.00;98999.47;5157778;27;20035;-94
2021/10/23 00:24:08;;;;;;;20.75;12.23;;;;;;;11.70;100.00;99005.66;5159401;27;20039;-94
2021/10/23 00:26:34;;;;;;;20.75;13.10;;;;;;;11.75;100.00;99016.19;5160175;27;20096;-95
2021/10/23 00:29:00;;;;;;;24.42;14.20;;;;;;;11.83;100.00;99028.38;5160751;27;20050;-94
2021/10/23 00:31:26;;;;;;;25.25;15.50;;;;;;;11.85;100.00;99036.34;5159151;27;20039;-94
2021/10/23 00:33:52;;;;;;;29.73;15.52;;;;;;;11.89;100.00;99032.72;5160174;27;20039;-94
2021/10/23 00:36:18;;;;;;;29.55;16.48;;;;;;;11.82;100.00;99017.75;5159029;27;20034;-95
2021/10/23 00:38:44;;;;;;;26.05;16.00;;;;;;;11.76;100.00;99005.50;5160444;27;20050;-95
2021/10/23 00:41:11;;;;;;;23.75;13.85;;;;;;;11.87;100.00;99005.19;5159125;27;20039;-94
2021/10/23 00:43:38;;;;;;;28.30;16.27;;;;;;;11.88;100.00;99012.28;5158177;27;20046;-94
2021/10/23 00:46:04;;;;;;;24.58;14.90;;;;;;;11.91;100.00;99026.41;5158603;27;20068;-94
2021/10/23 00:48:30;;;;;;;20.88;12.55;;;;;;;11.81;100.00;99008.91;5158345;27;20039;-94
2021/10/23 00:50:56;;;;;;;20.35;11.30;;;;;;;11.80;100.00;99008.97;5158790;27;20043;-95
2021/10/23 00:53:23;;;;;;;20.95;12.80;;;;;;;11.87;100.00;99023.84;5157716;27;20057;-95
2021/10/23 00:55:49;;;;;;;19.23;11.57;;;;;;;11.80;100.00;99007.16;5158284;27;20126;-95
2021/10/23 00:58:17;;;;;;;21.17;11.55;;;;;;;11.77;100.00;99017.91;5158119;27;20054;-94
2021/10/23 01:00:43;;;;;;;23.90;14.45;;;;;;;11.86;100.00;99032.75;5157052;27;20069;-95
2021/10/23 01:03:09;;;;;;;23.10;13.95;;;;;;;11.67;100.00;99003.97;5156312;27;20043;-94
2021/10/23 01:05:35;;;;;;;28.58;15.10;;;;;;;11.76;100.00;99017.97;5156367;27;20095;-94
2021/10/23 01:08:01;;;;;;;26.30;13.48;;;;;;;11.84;100.00;99008.84;5156572;27;20130;-95
2021/10/23 01:10:27;;;;;;;29.98;17.08;;;;;;;11.89;100.00;99022.06;5157824;27;20433;-95
2021/10/23 01:12:53;;;;;;;28.48;15.48;;;;;;;11.79;100.00;99007.19;5156566;27;20474;-96
2021/10/23 01:15:23;;;;;;;30.33;16.38;;;;;;;11.78;100.00;99019.66;5156954;27;20074;-95
2021/10/23 01:17:51;;;;;;;28.65;15.95;;;;;;;11.72;100.00;99019.81;5157864;27;20049;-95
2021/10/23 01:20:19;;;;;;;29.90;15.05;;;;;;;11.67;100.00;99013.75;5156446;27;20042;-94
2021/10/23 01:22:45;;;;;;;28.02;16.00;;;;;;;11.66;100.00;99015.53;5156517;27;20053;-94
2021/10/23 01:25:11;;;;;;;28.40;14.65;;;;;;;11.62;100.00;99005.00;5157483;27;20047;-94
2021/10/23 01:27:37;;;;;;;25.63;14.00;;;;;;;11.66;100.00;99014.66;5157139;27;20391;-95
2021/10/23 01:30:05;;;;;;;28.15;14.00;;;;;;;11.66;100.00;99020.84;5156201;27;20436;-95
2021/10/23 01:32:31;;;;;;;24.58;13.43;;;;;;;11.52;100.00;99005.25;5157155;27;20133;-94
2021/10/23 01:34:57;;;;;;;23.48;13.88;;;;;;;11.48;100.00;98998.25;5156144;27;20494;-93
2021/10/23 01:37:33;;;;;;;24.92;14.15;;;;;;;11.44;100.00;98996.59;5155953;27;20042;-96
2021/10/23 01:39:59;;;;;;;25.15;14.13;;;;;;;11.51;100.00;99010.63;5155907;27;20476;-95
2021/10/23 01:42:25;;;;;;;20.95;12.98;;;;;;;11.35;100.00;98990.66;5156999;27;20057;-94
2021/10/23 01:44:51;;;;;;;26.30;14.43;;;;;;;11.48;100.00;99010.72;5158718;27;20492;-95
2021/10/23 01:47:16;;;;;;;30.05;16.02;;;;;;;11.43;100.00;98997.53;5159415;27;20066;-93
2021/10/23 01:49:43;;;;;;;28.67;16.23;;;;;;;11.53;100.00;99016.78;5159736;27;20056;-93
2021/10/23 01:52:09;;;;;;;27.00;15.27;;;;;;;11.50;100.00;99000.91;5160189;27;20043;-95
2021/10/23 01:54:36;;;;;;;27.60;15.15;;;;;;;11.61;100.00;99016.59;5160132;27;20057;-95
2021/10/23 01:57:03;;;;;;;25.35;13.88;;;;;;;11.66;100.00;99020.84;5160697;27;20072;-94
2021/10/23 01:59:28;;;;;;;25.23;13.75;;;;;;;11.70;100.00;99025.19;5159673;27;20568;-94
2021/10/23 02:01:54;;;;;;;25.23;13.45;;;;;;;11.58;100.00;99008.66;5159998;27;20081;-93
2021/10/23 02:04:20;;;;;;;27.00;14.65;;;;;;;11.72;100.00;99026.03;5159745;27;20035;-96
2021/10/23 02:06:46;;;;;;;26.08;14.38;;;;;;;11.70;100.00;99009.19;5159596;27;20046;-94
2021/10/23 02:09:12;;;;;;;27.25;14.90;;;;;;;11.78;100.00;99025.00;5159885;27;20445;-93
2021/10/23 02:11:39;;;;;;;28.05;14.82;;;;;;;11.74;100.00;99018.00;5162569;27;20049;-96
2021/10/23 02:14:05;;;;;;;26.60;14.27;;;;;;;11.78;100.00;99022.31;5161372;27;20103;-95
2021/10/23 02:16:31;;;;;;;25.40;14.13;;;;;;;11.77;100.00;99027.69;5160849;27;20046;-95
2021/10/23 02:18:57;;;;;;;25.20;13.55;;;;;;;11.78;100.00;99024.13;5158754;27;20121;-94
2021/10/23 02:21:23;;;;;;;23.23;13.05;;;;;;;11.78;100.00;99027.66;5158944;27;20074;-96
2021/10/23 02:23:49;;;;;;;22.85;14.10;;;;;;;11.80;100.00;99028.47;5158859;27;20035;-96
2021/10/23 02:26:15;;;;;;;21.30;13.05;;;;;;;11.70;100.00;99019.00;5158623;27;20090;-94
2021/10/23 02:28:43;;;;;;;22.25;13.20;;;;;;;11.68;100.00;99019.03;5159259;27;20063;-94
2021/10/23 02:31:08;;;;;;;23.42;13.05;;;;;;;11.59;100.00;99019.28;5158757;27;20069;-95
2021/10/23 02:33:34;;;;;;;18.33;11.00;;;;;;;11.67;100.00;99038.59;5158769;27;20074;-94
2021/10/23 02:36:00;;;;;;;23.58;12.20;;;;;;;11.60;100.00;99028.13;5158711;27;20045;-94
2021/10/23 02:38:26;;;;;;;22.20;12.07;;;;;;;11.60;100.00;99029.03;5158950;27;20035;-94
2021/10/23 02:40:52;;;;;;;23.40;12.80;;;;;;;11.54;100.00;99021.22;5158776;27;20035;-94
2021/10/23 02:43:18;;;;;;;20.10;11.48;;;;;;;11.58;100.00;99021.97;5158729;27;20407;-92
2021/10/23 02:45:46;;;;;;;22.55;12.23;;;;;;;11.52;100.00;99031.03;5158535;27;20053;-94
2021/10/23 02:48:12;;;;;;;22.00;12.40;;;;;;;11.52;100.00;99029.22;5158576;27;20073;-94
2021/10/23 02:50:37;;;;;;;40.42;12.93;;;;;;;11.55;100.00;99022.94;5158401;27;20173;-93
2021/10/23 02:53:03;;;;;;;22.13;11.70;;;;;;;11.48;100.00;99024.91;5158904;27;20034;-94
2021/10/23 02:55:30;;;;;;;23.92;13.13;;;;;;;11.50;100.00;99035.53;5158398;27;20042;-95
2021/10/23 02:57:56;;;;;;;24.23;12.75;;;;;;;11.42;100.00;99021.53;5157883;27;20099;-94
2021/10/23 03:00:22;;;;;;;21.20;11.32;;;;;;;11.46;100.00;99033.84;5158051;27;20038;-94
2021/10/23 03:02:50;;;;;;;55.95;14.70;;;;;;;11.39;100.00;99024.28;5158112;27;20548;-94
2021/10/23 03:05:17;;;;;;;25.67;14.85;;;;;;;11.25;100.00;99012.19;5158763;27;20047;-94
2021/10/23 03:07:43;;;;;;;22.10;13.32;;;;;;;11.37;100.00;99034.97;5158208;27;20495;-94
2021/10/23 03:10:09;;;;;;;19.63;11.40;;;;;;;11.45;100.00;99050.72;5158018;27;20510;-95
2021/10/23 03:12:35;;;;;;;19.27;10.52;;;;;;;11.44;100.00;99046.31;5158310;27;20035;-95
2021/10/23 03:15:02;;;;;;;27.00;14.13;;;;;;;11.33;100.00;99035.94;5157521;27;20046;-95
2021/10/23 03:17:27;;;;;;;64.38;15.85;;;;;;;11.42;100.00;99049.03;5157998;27;20034;-93
2021/10/23 03:19:57;;;;;;;29.70;13.40;;;;;;;11.37;100.00;99050.06;5158129;27;20404;-95
2021/10/23 03:22:22;;;;;;;;;;;;;;;11.40;100.00;99049.97;5158066;27;20046;-95
2021/10/23 03:24:48;;;;;;;25.73;14.07;;;;;;;11.29;100.00;99043.13;5157958;27;20038;-94
2021/10/23 03:27:14;;;;;;;28.02;10.00;;;;;;;11.33;100.00;99037.75;5158574;27;20405;-94
2021/10/23 03:29:40;;;;;;;19.10;10.45;;;;;;;11.37;100.00;99053.59;5157752;27;20051;-94
2021/10/23 03:32:06;;;;;;;19.40;11.65;;;;;;;11.25;100.00;99029.94;5157448;27;20134;-93
2021/10/23 03:34:32;;;;;;;21.60;12.95;;;;;;;11.27;100.00;99039.63;5157512;27;20043;-95
2021/10/23 03:36:59;;;;;;;22.10;12.63;;;;;;;11.29;100.00;99026.28;5157399;27;20396;-93
2021/10/23 03:39:25;;;;;;;21.40;12.50;;;;;;;11.44;100.00;99051.66;5157535;27;20071;-93
2021/10/23 03:41:51;;;;;;;28.23;13.73;;;;;;;11.43;100.00;99056.13;5157321;27;20420;-94
2021/10/23 03:44:17;;;;;;;19.52;11.85;;;;;;;11.45;100.00;99048.97;5157603;27;20050;-94
2021/10/23 03:46:42;;;;;;;20.90;12.45;;;;;;;11.37;100.00;99039.44;5157378;27;20043;-94
2021/10/23 03:49:08;;;;;;;18.55;10.88;;;;;;;11.33;100.00;99033.28;5157486;27;20559;-94
2021/10/23 03:51:34;;;;;;;19.15;11.02;;;;;;;11.36;100.00;99053.63;5157355;27;20113;-94
2021/10/23 03:54:02;;;;;;;16.65;9.38;;;;;;;11.43;100.00;99042.81;5159191;27;20496;-94
2021/10/23 03:56:28;;;;;;;15.52;9.65;;;;;;;11.34;100.00;99045.69;5158928;27;20049;-95
2021/10/23 03:58:53;;;;;;;106.78;13.35;;;;;;;11.39;100.00;99061.56;5159081;27;20078;-95
2021/10/23 04:01:19;;;;;;;120.75;13.50;;;;;;;11.26;100.00;99051.22;5158903;27;20047;-95
2021/10/23 04:03:45;;;;;;;175.90;14.45;;;;;;;11.15;100.00;99047.94;5159419;27;20047;-95
2021/10/23 04:06:14;;;;;;;101.22;13.85;;;;;;;11.13;100.00;99065.75;5158873;27;20035;-95
2021/10/23 04:08:39;;;;;;;16.70;8.18;;;;;;;11.06;100.00;99058.81;5159176;27;20039;-92
2021/10/23 04:11:07;;;;;;;14.85;9.68;;;;;;;11.05;100.00;99065.91;5158292;27;20054;-93
2021/10/23 04:13:32;;;;;;;14.40;8.50;;;;;;;10.96;100.00;99055.50;5156651;27;20050;-94
2021/10/23 04:15:58;;;;;;;17.45;9.93;;;;;;;10.92;100.00;99069.78;5158460;27;20042;-94
2021/10/23 04:18:24;;;;;;;31.98;12.07;;;;;;;10.96;100.00;99074.13;5158316;27;20038;-94
2021/10/23 04:20:50;;;;;;;26.27;11.40;;;;;;;10.90;100.00;99063.63;5158550;27;20117;-93
2021/10/23 04:23:16;;;;;;;15.25;9.32;;;;;;;10.88;100.00;99065.44;5158215;27;20043;-95
2021/10/23 04:25:42;;;;;;;12.50;8.18;;;;;;;10.96;100.00;99055.50;5158373;27;20043;-94
2021/10/23 04:28:09;;;;;;;12.75;7.68;;;;;;;10.97;100.00;99057.25;5158360;27;20424;-94
2021/10/23 04:30:35;;;;;;;15.80;8.32;;;;;;;11.12;100.00;99063.97;5158205;27;20050;-93
2021/10/23 04:33:01;;;;;;;19.50;8.20;;;;;;;11.18;100.00;99076.28;5158318;27;20047;-94
2021/10/23 04:35:27;;;;;;;135.80;11.68;;;;;;;10.93;100.00;99057.34;5158160;27;20095;-94
2021/10/23 04:37:53;;;;;;;125.28;11.65;;;;;;;10.89;100.00;99076.06;5158008;27;20469;-93
2021/10/23 04:40:19;;;;;;;129.77;13.90;;;;;;;10.85;100.00;99068.19;5158449;27;20090;-94
2021/10/23 04:42:45;;;;;;;202.65;16.15;;;;;;;10.80;100.00;99064.75;5158054;27;20126;-94
2021/10/23 04:45:13;;;;;;;105.75;13.73;;;;;;;10.79;100.00;99068.34;5156900;27;20464;-94
2021/10/23 04:47:38;;;;;;;191.27;15.57;;;;;;;10.77;100.00;99065.69;5157809;27;20099;-96
2021/10/23 04:50:05;;;;;;;128.25;16.90;;;;;;;10.76;100.00;99068.41;5158376;27;20046;-95
2021/10/23 04:52:31;;;;;;;152.52;14.13;;;;;;;10.73;100.00;99060.50;5137162;27;20508;-93
2021/10/23 04:54:57;;;;;;;99.07;11.80;;;;;;;10.70;100.00;99056.13;5138837;27;20036;-94
2021/10/23 04:57:23;;;;;;;64.88;10.73;;;;;;;10.86;100.00;99075.25;5158360;27;20035;-94
2021/10/23 04:59:48;;;;;;;44.08;11.27;;;;;;;10.72;100.00;99058.75;5160141;27;20046;-95
2021/10/23 05:02:21;;;;;;;37.63;10.88;;;;;;;10.80;100.00;99068.31;5157758;27;20117;-92
2021/10/23 05:04:47;;;;;;;33.08;10.80;;;;;;;10.78;100.00;99046.19;5159002;27;20452;-95
2021/10/23 05:07:13;;;;;;;32.28;12.55;;;;;;;10.92;100.00;99058.28;5160188;27;20038;-95
2021/10/23 05:09:39;;;;;;;33.42;10.65;;;;;;;10.84;100.00;99043.38;5159345;27;20046;-94
2021/10/23 05:12:05;;;;;;;19.48;10.20;;;;;;;10.80;100.00;99047.03;5158112;27;20087;-94
2021/10/23 05:14:31;;;;;;;20.70;11.20;;;;;;;10.87;100.00;99067.25;5157977;27;20027;-94
2021/10/23 05:17:00;;;;;;;19.02;11.05;;;;;;;10.83;100.00;99052.25;5157902;27;20137;-93
2021/10/23 05:19:28;;;;;;;20.85;9.35;;;;;;;10.94;100.00;99057.31;5158951;27;20038;-94
2021/10/23 05:21:53;;;;;;;50.22;13.82;;;;;;;10.74;100.00;99036.53;5162101;27;20395;-94
2021/10/23 05:24:21;;;;;;;105.90;13.90;;;;;;;10.71;100.00;99033.03;5162165;27;20035;-94
2021/10/23 05:26:50;;;;;;;54.95;11.25;;;;;;;10.81;100.00;99062.06;5162213;27;20042;-93
2021/10/23 05:29:20;;;;;;;40.45;11.88;;;;;;;10.78;100.00;99066.56;5163794;27;20047;-95
2021/10/23 05:31:51;;;;;;;88.93;13.13;;;;;;;10.61;100.00;99043.91;5162932;27;20074;-94
2021/10/23 05:34:17;;;;;;;94.53;14.32;;;;;;;10.64;100.00;99057.13;5163233;27;20069;-94
2021/10/23 05:36:46;;;;;;;224.75;19.05;;;;;;;10.56;100.00;99056.44;5163511;27;20521;-95
2021/10/23 05:39:13;;;;;;;228.90;19.55;;;;;;;10.72;100.00;99082.69;5163292;27;20133;-94
2021/10/23 05:41:44;;;;;;;141.25;16.67;;;;;;;10.69;100.00;99089.81;5163837;27;20511;-93
2021/10/23 05:44:15;;;;;;;60.72;11.93;;;;;;;10.57;100.00;99050.19;5162556;27;20121;-94
2021/10/23 05:46:42;;;;;;;96.72;13.90;;;;;;;10.65;100.00;99052.69;5163377;27;20068;-94
2021/10/23 05:49:10;;;;;;;65.40;11.10;;;;;;;10.67;100.00;99059.72;5163455;27;20100;-93
2021/10/23 05:51:39;;;;;;;99.72;15.77;;;;;;;10.69;100.00;99071.22;5162860;27;20449;-93
2021/10/23 05:54:10;;;;;;;41.90;10.23;;;;;;;10.74;100.00;99072.91;5162875;27;20056;-94
2021/10/23 05:56:38;;;;;;;19.33;9.85;;;;;;;10.72;100.00;99086.22;5162252;27;20060;-95
2021/10/23 06:05:04;;;;;;;15.98;9.48;;;;;;;10.74;100.00;99091.50;5116190;27;20870;-94
2021/10/23 06:07:32;;;;;;;17.48;9.68;;;;;;;10.83;100.00;99102.81;5115298;28;20058;-94
2021/10/23 06:09:59;;;;;;;19.80;10.65;;;;;;;10.90;100.00;99103.53;5116875;28;20109;-94
2021/10/23 06:12:26;;;;;;;18.23;10.27;;;;;;;10.90;100.00;99104.41;5114340;28;20028;-95
2021/10/23 06:14:52;;;;;;;16.85;10.00;;;;;;;11.02;100.00;99119.22;5130623;27;20050;-94
2021/10/23 06:17:18;;;;;;;20.73;11.07;;;;;;;11.05;100.00;99128.91;5122697;27;20055;-95
2021/10/23 06:19:44;;;;;;;15.45;8.43;;;;;;;11.02;100.00;99102.41;5114380;28;20040;-94
2021/10/23 06:22:11;;;;;;;15.60;8.80;;;;;;;11.02;100.00;99115.69;5114053;28;20036;-93
2021/10/23 06:24:37;;;;;;;31.85;8.15;;;;;;;11.09;100.00;99122.63;5113896;28;20097;-94
2021/10/23 06:27:03;;;;;;;18.45;9.35;;;;;;;11.01;100.00;99106.81;5114372;28;20044;-96
2021/10/23 06:29:30;;;;;;;18.20;9.27;;;;;;;11.01;100.00;99121.91;5114463;28;20402;-95
2021/10/23 06:31:56;;;;;;;26.95;9.88;;;;;;;10.85;100.00;99113.41;5115191;28;20043;-95
2021/10/23 06:34:22;;;;;;;23.25;9.35;;;;;;;10.98;100.00;99141.50;5115333;28;20047;-94
2021/10/23 06:36:48;;;;;;;14.93;9.50;;;;;;;10.88;100.00;99138.16;5113791;28;20035;-96
2021/10/23 06:39:15;;;;;;;16.83;9.48;;;;;;;10.93;100.00;99145.16;5114580;28;20040;-95
2021/10/23 06:41:41;;;;;;;15.25;9.40;;;;;;;11.00;100.00;99150.31;5115051;28;20044;-95
2021/10/23 06:44:07;;;;;;;17.88;9.90;;;;;;;10.95;100.00;99128.28;5114245;28;20043;-93
2021/10/23 06:46:33;;;;;;;34.08;21.13;;;;;;;11.24;100.00;99167.50;5113569;28;20075;-94
2021/10/23 06:48:59;;;;;;;28.05;17.83;;;;;;;11.20;100.00;99163.16;5114372;28;20449;-94
2021/10/23 06:51:25;;;;;;;26.25;15.57;;;;;;;11.27;100.00;99163.91;5112419;28;20501;-95
2021/10/23 06:56:51;;;;;;;18.48;11.73;;;;;;;11.41;100.00;99193.75;5152955;27;20381;-93
2021/10/23 06:59:17;;;;;;;17.13;11.63;;;;;;;11.39;100.00;99184.91;5134158;27;20373;-95
2021/10/23 07:01:43;;;;;;;22.15;13.95;;;;;;;11.33;100.00;99185.06;5134862;28;20138;-95
2021/10/23 07:04:09;;;;;;;27.85;14.57;;;;;;;11.44;100.00;99208.78;5134811;28;20565;-95
2021/10/23 07:06:35;;;;;;;22.70;13.50;;;;;;;11.29;100.00;99186.91;5134667;27;20080;-95
2021/10/23 07:09:01;;;;;;;99.50;16.65;;;;;;;11.38;100.00;99196.47;5150472;27;20051;-94
2021/10/23 07:11:26;;;;;;;31.77;13.30;;;;;;;11.50;100.00;99221.94;5155413;27;20114;-95
2021/10/23 07:13:54;;;;;;;240.13;20.48;;;;;;;11.47;100.00;99222.00;5154948;27;20039;-96
2021/10/23 07:16:20;;;;;;;85.13;16.08;;;;;;;11.49;100.00;99201.53;5154667;27;20035;-95
2021/10/23 07:18:45;;;;;;;39.08;12.55;;;;;;;11.68;100.00;99210.84;5154887;27;20039;-95
2021/10/23 07:21:12;;;;;;;16.38;9.77;;;;;;;11.78;100.00;99199.97;5155948;27;20083;-94
2021/10/23 07:23:38;;;;;;;15.57;10.32;;;;;;;11.88;100.00;99210.41;5158114;27;20033;-95
2021/10/23 07:26:04;;;;;;;21.00;12.68;;;;;;;11.99;100.00;99226.13;5162482;27;20070;-95
2021/10/23 07:28:29;;;;;;;22.50;12.52;;;;;;;12.18;100.00;99230.94;5156494;27;20437;-95
2021/10/23 07:30:57;;;;;;;28.38;14.90;;;;;;;12.28;100.00;99236.00;5154808;27;20071;-94
2021/10/23 07:33:23;;;;;;;24.77;13.60;;;;;;;12.30;100.00;99233.31;5155211;27;20075;-96
2021/10/23 07:35:49;;;;;;;19.27;11.18;;;;;;;12.20;100.00;99213.13;5161737;27;20039;-96
2021/10/23 07:38:15;;;;;;;15.15;9.80;;;;;;;12.21;100.00;99215.75;5167238;27;20039;-95
2021/10/23 07:40:47;;;;;;;15.45;10.35;;;;;;;12.35;100.00;99223.38;5166695;27;20035;-96
2021/10/23 07:43:16;;;;;;;17.88;9.52;;;;;;;12.46;100.00;99234.63;5172697;27;20039;-96
2021/10/23 07:45:53;;;;;;;18.50;10.57;;;;;;;12.58;100.00;99222.75;5169684;27;20102;-96
2021/10/23 07:51:47;;;;;;;21.25;12.32;;;;;;;12.92;100.00;99236.03;5169299;27;20027;-96
2021/10/23 07:54:15;;;;;;;19.85;11.38;;;;;;;13.03;100.00;99238.34;5164366;27;20043;-96
2021/10/23 07:56:44;;;;;;;17.50;10.93;;;;;;;13.10;100.00;99231.06;5163582;27;20122;-95
2021/10/23 07:59:11;;;;;;;23.35;11.02;;;;;;;13.35;100.00;99273.94;5162176;27;20126;-96
2021/10/23 08:01:37;;;;;;;19.67;12.00;;;;;;;13.20;100.00;99229.84;5161131;27;20055;-94
2021/10/23 08:04:03;;;;;;;18.98;11.57;;;;;;;13.17;100.00;99266.47;5158268;27;20054;-94
2021/10/23 08:06:30;;;;;;;15.68;9.77;;;;;;;12.80;100.00;99263.06;5154371;27;20042;-93
2021/10/23 08:08:57;;;;;;;19.80;11.80;;;;;;;12.62;100.00;99244.88;5146291;27;20058;-96
2021/10/23 08:11:23;;;;;;;18.67;10.63;;;;;;;12.77;100.00;99260.44;5146228;27;20077;-94
2021/10/23 08:13:50;;;;;;;20.63;11.27;;;;;;;12.75;100.00;99251.59;5133678;27;20040;-96
2021/10/23 08:16:16;;;;;;;17.88;11.05;;;;;;;12.67;100.00;99261.66;5140606;27;20071;-96
2021/10/23 08:18:42;;;;;;;19.33;11.48;;;;;;;12.75;100.00;99259.63;5148881;27;20050;-94
2021/10/23 08:21:08;;;;;;;19.13;11.52;;;;;;;12.58;100.00;99240.53;5151361;27;20043;-95
2021/10/23 08:23:35;;;;;;;18.80;11.57;;;;;;;12.73;100.00;99256.16;5148543;27;20401;-96
2021/10/23 08:26:02;;;;;;;20.20;11.95;;;;;;;12.79;100.00;99271.09;5149072;27;20062;-96
2021/10/23 08:28:28;;;;;;;20.17;12.23;;;;;;;12.63;100.00;99263.50;5149765;27;20039;-95
2021/10/23 08:30:54;;;;;;;22.10;12.88;;;;;;;12.56;100.00;99253.94;5149942;27;20062;-96
2021/10/23 08:33:20;;;;;;;22.15;13.75;;;;;;;12.75;100.00;99256.94;5149373;27;20091;-96
2021/10/23 08:35:47;;;;;;;22.05;12.05;;;;;;;12.78;100.00;99262.22;5147786;27;20047;-92
2021/10/23 08:38:13;;;;;;;20.02;11.90;;;;;;;12.92;100.00;99285.84;5148823;27;20117;-94
2021/10/23 08:40:39;;;;;;;19.38;11.82;;;;;;;12.92;100.00;99294.75;5145064;27;20068;-95
2021/10/23 08:43:08;;;;;;;22.85;12.48;;;;;;;12.93;100.00;99284.94;5145411;27;20046;-95
2021/10/23 08:45:37;;;;;;;22.00;12.97;;;;;;;12.93;100.00;99259.09;5139947;27;20039;-95
2021/10/23 08:48:05;;;;;;;27.23;13.82;;;;;;;13.09;100.00;99278.22;5138439;27;20307;-95
2021/10/23 08:50:31;;;;;;;20.30;12.47;;;;;;;13.17;100.00;99278.00;5137918;27;20039;-95
2021/10/23 08:53:00;;;;;;;23.20;13.27;;;;;;;13.22;100.00;99275.19;5133726;27;20049;-96
2021/10/23 08:55:26;;;;;;;21.05;13.48;;;;;;;13.27;100.00;99271.47;5134718;27;20516;-94
2021/10/23 08:57:52;;;;;;;24.92;13.27;;;;;;;13.42;100.00;99266.59;5127425;27;20031;-95
2021/10/23 09:00:20;;;;;;;22.23;13.77;;;;;;;13.65;100.00;99266.78;5134822;27;20042;-94
2021/10/23 09:02:48;;;;;;;26.85;14.45;;;;;;;14.14;100.00;99277.69;5132110;27;20054;-94
2021/10/23 09:05:15;;;;;;;27.53;13.97;;;;;;;14.54;97.06;99278.97;5134448;27;20046;-93
2021/10/23 09:07:42;;;;;;;24.27;14.40;;;;;;;14.52;97.42;99284.38;5131718;27;20275;-94
2021/10/23 09:10:08;;;;;;;21.40;12.95;;;;;;;14.61;94.97;99287.69;5134171;27;20046;-94
2021/10/23 09:12:36;;;;;;;20.40;12.10;;;;;;;14.56;95.17;99275.34;5132426;27;20395;-94
2021/10/23 09:15:04;;;;;;;20.35;13.18;;;;;;;14.94;93.08;99282.94;5133669;27;20043;-92
2021/10/23 09:17:32;;;;;;;21.25;12.82;;;;;;;15.12;92.45;99273.34;5136415;27;20070;-95
2021/10/23 09:20:05;;;;;;;20.85;11.73;;;;;;;15.24;91.14;99274.69;5134292;27;20043;-96
2021/10/23 09:22:33;;;;;;;21.98;12.38;;;;;;;15.30;91.48;99275.31;5138691;27;20035;-94
2021/10/23 09:25:19;;;;;;;19.42;12.38;;;;;;;15.56;90.96;99274.31;5126019;27;20039;-96
2021/10/23 09:27:47;;;;;;;18.67;12.07;;;;;;;15.67;89.35;99278.38;5122924;27;20564;-94
2021/10/23 09:30:14;;;;;;;17.42;11.50;;;;;;;15.88;89.15;99272.19;5138082;27;20127;-96
2021/10/23 09:32:47;;;;;;;20.83;12.30;;;;;;;16.10;88.60;99271.31;5137804;27;20505;-95
2021/10/23 09:35:14;;;;;;;19.40;12.48;;;;;;;16.15;87.19;99263.94;5128568;27;20035;-96
2021/10/23 09:37:42;;;;;;;20.77;12.88;;;;;;;16.25;85.70;99275.16;5137596;27;20045;-94
2021/10/23 09:40:09;;;;;;;18.38;11.93;;;;;;;16.37;86.86;99270.16;5135571;27;20074;-95
2021/10/23 09:42:35;;;;;;;18.92;11.73;;;;;;;16.00;87.25;99269.00;5138385;27;20046;-95
2021/10/23 09:45:03;;;;;;;18.85;11.20;;;;;;;16.01;88.26;99264.50;5138353;27;20042;-96
2021/10/23 09:47:33;;;;;;;15.83;10.20;;;;;;;16.13;87.12;99255.94;5139202;27;20039;-95
2021/10/23 09:50:12;;;;;;;16.58;11.02;;;;;;;16.44;86.79;99268.06;5138326;27;20066;-95
2021/10/23 09:52:56;;;;;;;;;;;;;;;16.21;87.93;99286.00;5123425;27;20047;-93
2021/10/23 09:55:23;;;;;;;17.33;11.25;;;;;;;16.04;88.15;99275.09;5138125;27;19919;-96
2021/10/23 09:58:05;;;;;;;18.92;11.25;;;;;;;16.20;87.81;99276.22;5139229;27;20414;-94
2021/10/23 10:00:31;;;;;;;17.38;10.75;;;;;;;16.25;87.30;99280.53;5137525;27;20045;-94
2021/10/23 10:02:58;;;;;;;16.05;10.02;;;;;;;16.68;85.00;99262.59;5131669;27;20077;-96
2021/10/23 10:05:26;;;;;;;18.52;10.15;;;;;;;16.81;85.40;99262.00;5138854;27;20045;-95
2021/10/23 10:07:52;;;;;;;17.00;9.63;;;;;;;17.20;84.64;99279.94;5137950;27;20047;-96
2021/10/23 10:10:21;;;;;;;13.60;9.40;;;;;;;17.29;80.86;99278.63;5140328;27;20549;-96
2021/10/23 10:12:46;;;;;;;13.35;9.38;;;;;;;17.47;78.53;99278.72;5140419;27;20050;-94
2021/10/23 10:15:13;;;;;;;13.73;9.45;;;;;;;17.20;79.51;99274.56;5140154;27;20035;-94
2021/10/23 10:17:40;;;;;;;12.68;7.82;;;;;;;17.18;79.73;99263.00;5139572;27;20126;-95
2021/10/23 10:20:09;;;;;;;14.32;8.52;;;;;;;16.98;80.30;99271.97;5141257;27;20430;-95
2021/10/23 10:22:49;;;;;;;13.63;8.30;;;;;;;16.82;82.09;99281.66;5120901;28;20079;-95
2021/10/23 10:25:17;;;;;;;14.35;8.80;;;;;;;16.73;81.70;99268.59;5133526;27;20031;-95
2021/10/23 10:27:44;;;;;;;12.82;7.93;;;;;;;16.95;81.02;99277.47;5139068;27;20047;-96
2021/10/23 10:30:19;;;;;;;14.95;9.23;;;;;;;16.67;82.45;99283.16;5139061;27;20039;-95
2021/10/23 10:32:45;;;;;;;13.52;8.70;;;;;;;16.51;81.99;99274.91;5118235;28;20086;-96
2021/10/23 10:44:26;;;;;;;12.02;7.85;;;;;;;16.83;81.07;99268.16;5073352;27;20379;-96
2021/10/23 10:47:16;;;;;;;14.00;8.93;;;;;;;17.01;81.00;99279.88;5074008;28;20045;-93
2021/10/23 10:53:18;;;;;;;12.63;8.20;;;;;;;17.36;79.07;99272.00;5151273;27;20883;-95
2021/10/23 10:55:46;;;;;;;10.90;7.40;;;;;;;17.45;78.76;99266.19;5097366;28;20051;-95
2021/10/23 10:58:13;;;;;;;14.02;8.98;;;;;;;17.76;79.26;99280.91;5135632;27;20507;-92
2021/10/23 11:01:12;;;;;;;13.25;8.48;;;;;;;17.74;77.33;99272.03;5126555;28;20080;-93
2021/10/23 11:03:44;;;;;;;13.10;7.50;;;;;;;17.95;75.80;99266.56;5116520;28;20403;-93
2021/10/23 11:06:52;;;;;;;12.32;8.05;;;;;;;18.04;75.93;99274.16;5123586;28;20351;-95
2021/10/23 11:09:43;;;;;;;12.40;8.25;;;;;;;17.64;77.03;99258.13;5116619;28;20508;-94
2021/10/23 11:12:16;;;;;;;15.18;10.13;;;;;;;17.54;77.55;99246.06;5134969;27;20035;-94
2021/10/23 11:14:43;;;;;;;12.02;7.82;;;;;;;17.79;75.96;99253.84;5132963;27;20557;-95
2021/10/23 11:17:15;;;;;;;16.52;9.95;;;;;;;17.96;75.58;99246.78;5117665;28;20482;-95
2021/10/23 11:19:42;;;;;;;14.35;10.60;;;;;;;17.84;76.67;99235.66;5136563;27;20051;-93
2021/10/23 11:22:11;;;;;;;14.57;8.50;;;;;;;18.15;75.92;99244.94;5128050;27;20477;-94
2021/10/23 11:24:38;;;;;;;12.57;8.40;;;;;;;18.18;76.17;99246.59;5125646;28;20110;-94
2021/10/23 11:27:06;;;;;;;15.00;9.60;;;;;;;18.01;76.26;99255.50;5120376;28;20448;-95
2021/10/23 11:29:32;;;;;;;13.55;8.18;;;;;;;17.81;75.33;99243.00;5120596;28;20131;-95
2021/10/23 11:32:00;;;;;;;14.00;8.45;;;;;;;17.57;75.31;99227.13;5136648;27;20039;-95
2021/10/23 11:34:27;;;;;;;16.15;9.35;;;;;;;17.50;77.16;99238.22;5128115;27;20044;-94
2021/10/23 11:36:58;;;;;;;10.98;8.05;;;;;;;17.67;77.15;99246.34;5128189;28;20051;-95
2021/10/23 11:39:24;;;;;;;13.90;8.45;;;;;;;17.72;76.06;99246.13;5138229;28;20047;-96